Time;durP1;ratioP1;P1;durP2;ratioP2;P2;SDS_P1;SDS_P2;PMS_P1;PMS_P2;Temp;Humidity;BMP_temperature;BMP_pressure;BME280_temperature;BME280_humidity;BME280_pressure;Samples;Min_cycle;Max_cycle;Signal;HPM_P1;HPM_P2
2024/05/05 00:00:03;;;;;;;23.83;15.88;;;;;;;;;;5445533;27;20337;-86
2024/05/05 00:02:33;;;;;;;23.67;16.92;;;;;;;;;;5459458;27;20002;-86
2024/05/05 00:05:03;;;;;;;24.98;17.95;;;;;;;;;;5459558;27;20002;-84
2024/05/05 00:07:33;;;;;;;24.50;18.48;;;;;;;;;;5429286;27;20540;-84
2024/05/05 00:10:04;;;;;;;23.58;18.08;;;;;;;;;;5458929;27;20500;-84
2024/05/05 00:12:37;;;;;;;24.02;17.38;;;;;;;;;;5459230;27;20032;-85
2024/05/05 00:15:07;;;;;;;26.55;19.55;;;;;;;;;;5458975;27;20006;-86
2024/05/05 00:17:38;;;;;;;24.88;17.80;;;;;;;;;;5452018;27;20002;-84
2024/05/05 00:20:08;;;;;;;27.40;20.58;;;;;;;;;;5459196;27;19998;-84
2024/05/05 00:22:38;;;;;;;28.02;20.42;;;;;;;;;;5458747;27;20008;-84
2024/05/05 00:25:09;;;;;;;32.05;22.35;;;;;;;;;;5459717;27;19998;-84
2024/05/05 00:27:39;;;;;;;28.02;20.30;;;;;;;;;;5460262;27;20463;-84
2024/05/05 00:30:09;;;;;;;28.70;20.77;;;;;;;;;;5446391;27;20329;-84
2024/05/05 00:32:39;;;;;;;28.05;21.02;;;;;;;;;;5459165;27;20076;-86
2024/05/05 00:35:10;;;;;;;29.98;21.02;;;;;;;;;;5443350;27;20012;-85
2024/05/05 00:37:42;;;;;;;35.33;22.83;;;;;;;;;;5458941;27;20035;-85
2024/05/05 00:40:12;;;;;;;;;;;;;;;;;;5459742;27;20006;-85
2024/05/05 00:42:45;;;;;;;32.88;21.98;;;;;;;;;;5429252;27;19937;-85
2024/05/05 00:45:15;;;;;;;33.20;19.75;;;;;;;;;;5459603;27;20278;-83
2024/05/05 00:47:46;;;;;;;28.35;20.13;;;;;;;;;;5459125;27;20002;-84
2024/05/05 00:50:16;;;;;;;30.35;21.33;;;;;;;;;;5459316;27;20461;-85
2024/05/05 00:52:49;;;;;;;29.25;21.38;;;;;;;;;;5459888;27;19995;-85
2024/05/05 00:55:20;;;;;;;26.35;19.75;;;;;;;;;;5429919;27;20395;-84
2024/05/05 00:57:50;;;;;;;32.25;21.85;;;;;;;;;;5459623;27;20010;-85
2024/05/05 01:00:20;;;;;;;27.33;19.85;;;;;;;;;;5429758;27;20022;-85
2024/05/05 01:02:50;;;;;;;35.25;23.00;;;;;;;;;;5459772;27;20092;-85
2024/05/05 01:05:21;;;;;;;34.25;22.73;;;;;;;;;;5432867;27;20392;-85
2024/05/05 01:07:51;;;;;;;29.20;21.67;;;;;;;;;;5433371;27;20009;-86
2024/05/05 01:10:21;;;;;;;31.92;22.17;;;;;;;;;;5433107;27;20005;-84
2024/05/05 01:12:52;;;;;;;37.05;23.15;;;;;;;;;;5433752;27;20068;-83
2024/05/05 01:15:22;;;;;;;30.02;22.33;;;;;;;;;;5464010;27;19994;-83
2024/05/05 01:17:52;;;;;;;30.38;21.40;;;;;;;;;;5463384;27;19998;-83
2024/05/05 01:20:22;;;;;;;29.38;21.13;;;;;;;;;;5463790;27;19991;-83
2024/05/05 01:22:53;;;;;;;34.03;23.23;;;;;;;;;;5433460;27;20005;-85
2024/05/05 01:25:23;;;;;;;32.03;23.17;;;;;;;;;;5463641;27;19995;-84
2024/05/05 01:27:53;;;;;;;30.33;19.58;;;;;;;;;;5463662;27;20069;-85
2024/05/05 01:30:23;;;;;;;28.88;21.55;;;;;;;;;;5464192;27;20010;-85
2024/05/05 01:32:54;;;;;;;34.38;22.90;;;;;;;;;;5463534;27;19994;-85
2024/05/05 01:35:24;;;;;;;31.75;23.50;;;;;;;;;;5464122;27;19998;-85
2024/05/05 01:37:54;;;;;;;32.83;22.70;;;;;;;;;;5463365;27;20000;-85
2024/05/05 01:40:25;;;;;;;29.00;22.60;;;;;;;;;;5433810;27;20009;-86
2024/05/05 01:42:55;;;;;;;32.95;22.98;;;;;;;;;;5462521;27;19990;-84
2024/05/05 01:45:25;;;;;;;36.58;25.10;;;;;;;;;;5462870;27;20005;-84
2024/05/05 01:47:56;;;;;;;38.83;25.25;;;;;;;;;;5433391;27;20336;-84
2024/05/05 01:50:26;;;;;;;39.13;26.92;;;;;;;;;;5464125;27;20009;-85
2024/05/05 01:52:56;;;;;;;35.92;24.25;;;;;;;;;;5434290;27;20006;-85
2024/05/05 01:55:26;;;;;;;36.78;26.00;;;;;;;;;;5463725;27;20492;-85
2024/05/05 01:57:57;;;;;;;36.03;25.83;;;;;;;;;;5433812;27;19999;-85
2024/05/05 02:00:27;;;;;;;37.80;25.27;;;;;;;;;;5463306;27;19990;-85
2024/05/05 02:02:57;;;;;;;33.25;25.30;;;;;;;;;;5463596;27;20144;-85
2024/05/05 02:05:27;;;;;;;35.88;26.00;;;;;;;;;;5433215;27;20002;-85
2024/05/05 02:07:58;;;;;;;43.50;27.63;;;;;;;;;;5463522;27;20000;-85
2024/05/05 02:10:28;;;;;;;41.33;27.17;;;;;;;;;;5463739;27;19998;-84
2024/05/05 02:12:58;;;;;;;34.80;26.15;;;;;;;;;;5463558;27;19998;-84
2024/05/05 02:15:28;;;;;;;43.88;29.48;;;;;;;;;;5460998;27;19994;-84
2024/05/05 02:17:59;;;;;;;41.97;28.92;;;;;;;;;;5461663;27;19998;-85
2024/05/05 02:20:29;;;;;;;42.03;28.88;;;;;;;;;;5462109;27;19994;-86
2024/05/05 02:22:59;;;;;;;47.40;30.30;;;;;;;;;;5462000;27;20001;-85
2024/05/05 02:25:29;;;;;;;60.03;34.63;;;;;;;;;;5462422;27;20334;-85
2024/05/05 02:28:00;;;;;;;68.32;36.58;;;;;;;;;;5432491;27;20003;-85
2024/05/05 02:30:30;;;;;;;68.32;38.13;;;;;;;;;;5462009;27;19991;-85
2024/05/05 02:33:00;;;;;;;54.05;34.35;;;;;;;;;;5461481;27;20073;-86
2024/05/05 02:35:31;;;;;;;56.17;34.20;;;;;;;;;;5462692;27;19998;-86
2024/05/05 02:38:01;;;;;;;60.38;37.42;;;;;;;;;;5461625;27;20002;-85
2024/05/05 02:40:31;;;;;;;65.97;38.47;;;;;;;;;;5461330;27;20313;-84
2024/05/05 02:43:01;;;;;;;60.05;37.42;;;;;;;;;;5431631;27;20001;-84
2024/05/05 02:45:34;;;;;;;66.93;38.97;;;;;;;;;;5431563;27;19999;-85
2024/05/05 02:48:05;;;;;;;73.15;39.63;;;;;;;;;;5462057;27;20006;-85
2024/05/05 02:50:35;;;;;;;59.08;35.92;;;;;;;;;;5462698;27;20009;-84
2024/05/05 02:53:06;;;;;;;67.13;37.92;;;;;;;;;;5462412;27;20081;-84
2024/05/05 02:55:36;;;;;;;62.67;36.58;;;;;;;;;;5461826;27;19990;-85
2024/05/05 02:58:06;;;;;;;60.53;36.33;;;;;;;;;;5461830;27;20080;-85
2024/05/05 03:00:36;;;;;;;68.78;35.65;;;;;;;;;;5462268;27;19998;-86
2024/05/05 03:03:07;;;;;;;61.22;35.40;;;;;;;;;;5431896;27;20010;-85
2024/05/05 03:05:37;;;;;;;56.45;34.13;;;;;;;;;;5461991;27;20069;-86
2024/05/05 03:08:11;;;;;;;54.45;32.08;;;;;;;;;;5431810;27;20009;-85
2024/05/05 03:10:41;;;;;;;60.67;35.08;;;;;;;;;;5461267;27;20009;-84
2024/05/05 03:13:11;;;;;;;62.42;35.60;;;;;;;;;;5461093;27;20002;-85
2024/05/05 03:15:42;;;;;;;60.30;35.22;;;;;;;;;;5460748;27;20457;-84
2024/05/05 03:18:12;;;;;;;62.03;34.05;;;;;;;;;;5461024;27;20008;-86
2024/05/05 03:20:42;;;;;;;61.85;34.13;;;;;;;;;;5461176;27;20005;-85
2024/05/05 03:23:12;;;;;;;63.33;34.08;;;;;;;;;;5431418;27;20002;-84
2024/05/05 03:25:43;;;;;;;69.88;36.35;;;;;;;;;;5461161;27;20341;-84
2024/05/05 03:28:14;;;;;;;65.03;35.08;;;;;;;;;;5459277;27;20353;-84
2024/05/05 03:30:45;;;;;;;71.25;36.75;;;;;;;;;;5460958;27;19991;-85
2024/05/05 03:33:15;;;;;;;68.90;33.80;;;;;;;;;;5431354;27;20053;-84
2024/05/05 03:35:45;;;;;;;64.68;30.73;;;;;;;;;;5430692;27;20003;-84
2024/05/05 03:38:15;;;;;;;70.13;31.52;;;;;;;;;;5460445;27;19991;-85
2024/05/05 03:40:46;;;;;;;70.05;31.08;;;;;;;;;;5430788;27;20013;-83
2024/05/05 03:43:16;;;;;;;76.95;32.08;;;;;;;;;;5461007;27;20004;-83
2024/05/05 03:45:46;;;;;;;76.70;32.22;;;;;;;;;;5431069;27;20002;-83
2024/05/05 03:48:16;;;;;;;73.57;31.27;;;;;;;;;;5461390;27;19997;-83
2024/05/05 03:50:47;;;;;;;64.63;30.15;;;;;;;;;;5460751;27;19998;-83
2024/05/05 03:53:17;;;;;;;64.05;30.33;;;;;;;;;;5460733;27;20467;-83
2024/05/05 03:55:47;;;;;;;63.90;29.38;;;;;;;;;;5431034;27;20016;-83
2024/05/05 03:58:17;;;;;;;67.97;29.95;;;;;;;;;;5458869;27;20447;-83
2024/05/05 04:00:48;;;;;;;65.53;30.10;;;;;;;;;;5460454;27;19998;-83
2024/05/05 04:03:18;;;;;;;61.35;28.30;;;;;;;;;;5460383;27;19994;-84
2024/05/05 04:05:48;;;;;;;54.05;25.02;;;;;;;;;;5460606;27;20002;-83
2024/05/05 04:08:18;;;;;;;81.25;31.98;;;;;;;;;;5491701;21;20016;-81
2024/05/05 04:10:49;;;;;;;73.72;32.35;;;;;;;;;;5498505;27;19997;-81
2024/05/05 04:13:19;;;;;;;74.13;31.52;;;;;;;;;;5498304;27;20006;-81
2024/05/05 04:15:49;;;;;;;62.53;29.23;;;;;;;;;;5498416;27;20009;-81
2024/05/05 04:18:19;;;;;;;63.78;28.40;;;;;;;;;;5498818;26;20003;-81
2024/05/05 04:20:50;;;;;;;61.75;28.55;;;;;;;;;;5498241;27;19997;-81
2024/05/05 04:23:20;;;;;;;55.72;27.25;;;;;;;;;;5497621;27;20012;-81
2024/05/05 04:25:50;;;;;;;62.22;28.95;;;;;;;;;;5498291;27;19994;-81
2024/05/05 04:28:20;;;;;;;53.05;26.08;;;;;;;;;;5497981;26;20045;-80
2024/05/05 04:30:50;;;;;;;52.83;26.48;;;;;;;;;;5498656;27;20083;-80
2024/05/05 04:33:21;;;;;;;47.03;24.35;;;;;;;;;;5497276;27;20451;-80
2024/05/05 04:35:51;;;;;;;44.67;23.65;;;;;;;;;;5497981;27;20002;-81
2024/05/05 04:38:21;;;;;;;44.40;22.75;;;;;;;;;;5498194;26;19990;-81
2024/05/05 04:40:51;;;;;;;43.30;22.80;;;;;;;;;;5497149;27;20020;-81
2024/05/05 04:43:21;;;;;;;45.30;22.58;;;;;;;;;;5498367;27;19998;-81
2024/05/05 04:45:52;;;;;;;43.38;22.42;;;;;;;;;;5498014;27;20012;-81
2024/05/05 04:48:22;;;;;;;39.85;20.77;;;;;;;;;;5497685;26;20012;-81
2024/05/05 04:50:52;;;;;;;38.53;20.75;;;;;;;;;;5496213;27;20072;-80
2024/05/05 04:53:22;;;;;;;37.13;20.75;;;;;;;;;;5496719;27;20010;-80
2024/05/05 04:55:53;;;;;;;41.67;21.83;;;;;;;;;;5497134;27;20029;-81
2024/05/05 04:58:23;;;;;;;42.40;21.75;;;;;;;;;;5498631;26;19993;-81
2024/05/05 05:00:53;;;;;;;39.67;20.67;;;;;;;;;;5498231;27;20036;-81
2024/05/05 05:03:23;;;;;;;38.65;21.50;;;;;;;;;;5497009;27;20009;-80
2024/05/05 05:05:53;;;;;;;40.45;21.65;;;;;;;;;;5498135;27;19998;-81
2024/05/05 05:08:24;;;;;;;37.63;21.25;;;;;;;;;;5498130;26;20009;-81
2024/05/05 05:10:54;;;;;;;37.22;19.77;;;;;;;;;;5498111;27;20350;-80
2024/05/05 05:13:25;;;;;;;38.28;21.05;;;;;;;;;;5496957;27;20084;-81
2024/05/05 05:15:56;;;;;;;40.40;21.13;;;;;;;;;;5497466;27;20064;-81
2024/05/05 05:18:26;;;;;;;40.78;22.00;;;;;;;;;;5496743;26;20005;-82
2024/05/05 05:20:56;;;;;;;39.53;21.30;;;;;;;;;;5498144;27;20008;-81
2024/05/05 05:23:26;;;;;;;38.97;20.45;;;;;;;;;;5496813;27;19990;-80
2024/05/05 05:25:56;;;;;;;35.17;19.45;;;;;;;;;;5497493;27;20030;-81
2024/05/05 05:28:27;;;;;;;37.75;20.70;;;;;;;;;;5497141;26;19994;-80
2024/05/05 05:30:57;;;;;;;39.03;21.38;;;;;;;;;;5496227;27;19998;-80
2024/05/05 05:33:27;;;;;;;40.60;21.33;;;;;;;;;;5495854;27;20491;-81
2024/05/05 05:35:57;;;;;;;39.17;21.40;;;;;;;;;;5496906;27;20005;-80
2024/05/05 05:38:27;;;;;;;43.65;22.52;;;;;;;;;;5497764;26;20005;-81
2024/05/05 05:40:58;;;;;;;45.33;23.95;;;;;;;;;;5497789;27;20008;-81
2024/05/05 05:43:28;;;;;;;42.70;22.30;;;;;;;;;;5496491;27;19994;-81
2024/05/05 05:46:02;;;;;;;44.65;22.02;;;;;;;;;;5497589;27;19998;-81
2024/05/05 05:48:32;;;;;;;46.88;23.58;;;;;;;;;;5497043;26;20016;-81
2024/05/05 05:51:02;;;;;;;44.60;22.95;;;;;;;;;;5467433;27;20008;-81
2024/05/05 05:53:33;;;;;;;44.13;23.02;;;;;;;;;;5500174;27;20004;-81
2024/05/05 05:56:03;;;;;;;49.80;23.98;;;;;;;;;;5500265;27;20071;-81
2024/05/05 05:58:33;;;;;;;48.92;24.42;;;;;;;;;;5499722;26;20002;-80
2024/05/05 06:01:04;;;;;;;43.42;23.33;;;;;;;;;;5500286;27;20004;-80
2024/05/05 06:03:34;;;;;;;43.58;22.63;;;;;;;;;;5499263;27;19994;-80
2024/05/05 06:06:04;;;;;;;45.95;23.33;;;;;;;;;;5499458;27;19998;-81
2024/05/05 06:08:34;;;;;;;41.85;23.35;;;;;;;;;;5499579;26;19990;-80
2024/05/05 06:11:05;;;;;;;46.60;23.27;;;;;;;;;;5499845;27;20001;-81
2024/05/05 06:13:36;;;;;;;46.90;23.60;;;;;;;;;;5499154;27;20014;-81
2024/05/05 06:16:06;;;;;;;48.88;23.63;;;;;;;;;;5499512;27;19990;-81
2024/05/05 06:18:36;;;;;;;44.53;23.25;;;;;;;;;;5469079;27;20071;-81
2024/05/05 06:21:07;;;;;;;39.10;21.08;;;;;;;;;;5499531;27;19997;-81
2024/05/05 06:23:37;;;;;;;38.85;21.02;;;;;;;;;;5499619;27;19993;-81
2024/05/05 06:26:07;;;;;;;36.05;20.30;;;;;;;;;;5470006;27;20009;-81
2024/05/05 06:28:37;;;;;;;37.58;19.42;;;;;;;;;;5501073;26;20033;-80
2024/05/05 06:31:08;;;;;;;34.95;19.27;;;;;;;;;;5499410;27;19993;-83
2024/05/05 06:33:38;;;;;;;39.08;20.55;;;;;;;;;;5498996;27;20348;-81
2024/05/05 06:36:10;;;;;;;33.50;19.70;;;;;;;;;;5499048;27;19993;-80
2024/05/05 06:38:40;;;;;;;33.67;18.98;;;;;;;;;;5499270;26;20010;-82
2024/05/05 06:41:10;;;;;;;33.67;19.33;;;;;;;;;;5499011;27;19994;-83
2024/05/05 06:43:41;;;;;;;33.85;19.92;;;;;;;;;;5495941;27;20320;-83
2024/05/05 06:46:11;;;;;;;30.63;18.77;;;;;;;;;;5499116;27;20016;-83
2024/05/05 06:48:41;;;;;;;30.58;18.98;;;;;;;;;;5499644;26;19989;-83
2024/05/05 06:51:11;;;;;;;33.88;19.58;;;;;;;;;;5500050;27;19998;-82
2024/05/05 06:53:42;;;;;;;28.70;17.88;;;;;;;;;;5496948;27;19993;-83
2024/05/05 06:56:12;;;;;;;34.60;20.35;;;;;;;;;;5497755;27;20008;-82
2024/05/05 06:58:42;;;;;;;32.42;19.23;;;;;;;;;;5499966;26;19994;-82
2024/05/05 07:01:12;;;;;;;29.48;18.63;;;;;;;;;;5500895;27;19998;-82
2024/05/05 07:03:42;;;;;;;29.45;17.58;;;;;;;;;;5498802;27;20000;-82
2024/05/05 07:06:13;;;;;;;25.10;16.08;;;;;;;;;;5500109;27;20045;-83
2024/05/05 07:08:43;;;;;;;23.45;15.43;;;;;;;;;;5499437;26;20011;-83
2024/05/05 07:11:13;;;;;;;25.30;15.57;;;;;;;;;;5499841;27;20448;-82
2024/05/05 07:13:46;;;;;;;24.48;16.35;;;;;;;;;;5499053;27;20392;-82
2024/05/05 07:16:17;;;;;;;21.73;15.05;;;;;;;;;;5499613;27;19997;-82
2024/05/05 07:18:47;;;;;;;21.45;14.23;;;;;;;;;;5500085;26;20052;-82
2024/05/05 07:21:17;;;;;;;23.65;15.50;;;;;;;;;;5467971;27;20468;-80
2024/05/05 07:23:47;;;;;;;22.25;15.05;;;;;;;;;;5498649;27;20012;-81
2024/05/05 07:26:18;;;;;;;18.50;13.25;;;;;;;;;;5499795;27;20460;-82
2024/05/05 07:28:48;;;;;;;20.13;14.73;;;;;;;;;;5500300;26;20009;-82
2024/05/05 07:31:18;;;;;;;21.73;15.20;;;;;;;;;;5499207;27;20460;-82
2024/05/05 07:33:49;;;;;;;19.33;14.30;;;;;;;;;;5499066;27;20084;-82
2024/05/05 07:36:19;;;;;;;21.77;15.45;;;;;;;;;;5499607;27;19993;-82
2024/05/05 07:38:49;;;;;;;20.58;15.30;;;;;;;;;;5499281;26;20052;-80
2024/05/05 07:41:19;;;;;;;20.83;14.52;;;;;;;;;;5498631;27;20044;-82
2024/05/05 07:43:50;;;;;;;18.25;13.82;;;;;;;;;;5498698;27;19994;-82
2024/05/05 07:46:20;;;;;;;20.83;14.10;;;;;;;;;;5498288;27;19989;-82
2024/05/05 07:48:50;;;;;;;19.17;13.40;;;;;;;;;;5498400;26;20318;-82
2024/05/05 07:51:20;;;;;;;18.85;13.40;;;;;;;;;;5498894;27;19994;-82
2024/05/05 07:53:51;;;;;;;17.25;12.68;;;;;;;;;;5499050;27;20327;-82
2024/05/05 07:56:21;;;;;;;18.15;12.90;;;;;;;;;;5497603;27;20469;-82
2024/05/05 07:58:51;;;;;;;15.75;11.85;;;;;;;;;;5499328;26;20344;-80
2024/05/05 08:01:21;;;;;;;16.57;12.10;;;;;;;;;;5498815;27;20332;-80
2024/05/05 08:03:52;;;;;;;17.23;12.85;;;;;;;;;;5498587;27;20463;-80
2024/05/05 08:06:22;;;;;;;16.93;12.67;;;;;;;;;;5498838;27;20409;-79
2024/05/05 08:08:52;;;;;;;16.23;12.18;;;;;;;;;;5499437;26;20367;-79
2024/05/05 08:11:22;;;;;;;16.80;12.57;;;;;;;;;;5498916;27;20053;-79
2024/05/05 08:13:52;;;;;;;18.87;12.60;;;;;;;;;;5497954;27;20357;-79
2024/05/05 08:16:23;;;;;;;17.27;13.05;;;;;;;;;;5498873;27;19997;-79
2024/05/05 08:18:53;;;;;;;16.13;12.30;;;;;;;;;;5499008;26;19994;-79
2024/05/05 08:21:23;;;;;;;17.27;13.23;;;;;;;;;;5468556;27;19997;-79
2024/05/05 08:23:53;;;;;;;19.00;14.20;;;;;;;;;;5498480;27;20004;-79
2024/05/05 08:26:24;;;;;;;18.10;14.03;;;;;;;;;;5468400;27;20012;-79
2024/05/05 08:28:54;;;;;;;17.67;14.20;;;;;;;;;;5498643;26;20020;-79
2024/05/05 08:31:24;;;;;;;17.67;13.50;;;;;;;;;;5498532;27;20075;-79
2024/05/05 08:33:55;;;;;;;18.13;13.93;;;;;;;;;;5497797;27;20021;-79
2024/05/05 08:36:25;;;;;;;18.63;13.63;;;;;;;;;;5498479;27;20009;-79
2024/05/05 08:38:55;;;;;;;17.37;12.80;;;;;;;;;;5498789;26;20009;-79
2024/05/05 08:41:26;;;;;;;16.30;12.43;;;;;;;;;;5498615;27;20021;-79
2024/05/05 08:43:56;;;;;;;15.20;11.67;;;;;;;;;;5498153;27;20336;-79
2024/05/05 08:46:27;;;;;;;20.97;13.57;;;;;;;;;;5498148;27;20026;-79
2024/05/05 08:48:57;;;;;;;17.13;13.23;;;;;;;;;;5498906;26;20429;-79
2024/05/05 08:51:27;;;;;;;18.50;13.73;;;;;;;;;;5499046;27;19994;-79
2024/05/05 08:53:57;;;;;;;17.53;13.00;;;;;;;;;;5497770;27;20109;-79
2024/05/05 08:56:28;;;;;;;17.63;13.50;;;;;;;;;;5497898;27;20005;-79
2024/05/05 08:58:58;;;;;;;16.57;12.83;;;;;;;;;;5498625;26;20345;-80
2024/05/05 09:01:29;;;;;;;16.23;12.83;;;;;;;;;;5499030;27;20016;-80
2024/05/05 09:04:19;;;;;;;19.52;14.30;;;;;;;;;;5499260;27;20002;-80
2024/05/05 09:06:52;;;;;;;17.67;13.15;;;;;;;;;;5497770;26;20012;-80
2024/05/05 09:09:23;;;;;;;18.70;14.57;;;;;;;;;;5498629;27;20445;-79
2024/05/05 09:11:53;;;;;;;20.23;15.20;;;;;;;;;;5498886;27;20080;-80
2024/05/05 09:14:26;;;;;;;17.17;13.50;;;;;;;;;;5498211;27;20008;-80
2024/05/05 09:16:57;;;;;;;19.75;15.15;;;;;;;;;;5497787;26;20037;-80
2024/05/05 09:19:27;;;;;;;18.87;16.17;;;;;;;;;;5497784;27;19998;-80
2024/05/05 09:21:57;;;;;;;19.00;15.43;;;;;;;;;;5498858;27;20008;-80
2024/05/05 09:24:27;;;;;;;21.87;17.67;;;;;;;;;;5497213;27;20002;-80
2024/05/05 09:26:58;;;;;;;21.73;18.43;;;;;;;;;;5500881;26;20009;-82
2024/05/05 09:29:29;;;;;;;21.03;18.07;;;;;;;;;;5473771;26;20027;-80
2024/05/05 09:32:01;;;;;;;20.35;17.95;;;;;;;;;;5503226;26;20329;-80
2024/05/05 09:34:31;;;;;;;;;;;;;;;;;;5529835;26;20001;-80
2024/05/05 09:37:03;;;;;;;19.30;17.20;;;;;;;;;;5500856;26;20021;-80
2024/05/05 09:39:34;;;;;;;19.30;17.15;;;;;;;;;;5514659;26;20292;-80
2024/05/05 09:42:04;;;;;;;20.55;17.25;;;;;;;;;;5470402;27;20101;-80
2024/05/05 09:44:34;;;;;;;18.47;16.53;;;;;;;;;;5514702;26;19997;-80
2024/05/05 09:47:06;;;;;;;18.33;15.57;;;;;;;;;;5501173;26;20008;-80
2024/05/05 09:49:37;;;;;;;15.57;13.20;;;;;;;;;;5500989;26;20006;-80
2024/05/05 09:52:17;;;;;;;15.87;13.13;;;;;;;;;;5511702;26;20049;-80
2024/05/05 09:54:59;;;;;;;15.85;11.43;;;;;;;;;;5507252;26;20038;-80
2024/05/05 09:57:31;;;;;;;11.77;9.55;;;;;;;;;;5497336;26;20001;-80
2024/05/05 10:00:01;;;;;;;11.90;9.35;;;;;;;;;;5504529;26;20315;-79
2024/05/05 10:02:32;;;;;;;16.77;11.07;;;;;;;;;;5514565;26;19998;-79
2024/05/05 10:05:02;;;;;;;12.47;11.03;;;;;;;;;;5499074;27;20081;-79
2024/05/05 10:07:46;;;;;;;11.93;9.87;;;;;;;;;;5543935;21;20391;-85
2024/05/05 10:10:21;;;;;;;12.15;9.93;;;;;;;;;;5426130;27;20006;-84
2024/05/05 10:12:54;;;;;;;11.93;9.00;;;;;;;;;;5427270;27;20014;-84
2024/05/05 10:15:28;;;;;;;12.32;9.63;;;;;;;;;;5427430;27;20003;-84
2024/05/05 10:18:07;;;;;;;13.43;10.50;;;;;;;;;;5425135;27;20002;-84
2024/05/05 10:20:48;;;;;;;11.70;10.13;;;;;;;;;;5426125;27;20007;-82
2024/05/05 10:23:18;;;;;;;11.65;9.25;;;;;;;;;;5410784;27;20014;-81
2024/05/05 10:25:51;;;;;;;11.03;8.53;;;;;;;;;;5426309;27;20021;-86
2024/05/05 10:28:21;;;;;;;10.85;8.52;;;;;;;;;;5426179;27;20014;-82
2024/05/05 10:30:51;;;;;;;10.00;7.20;;;;;;;;;;5398044;27;20431;-84
2024/05/05 10:33:24;;;;;;;10.27;6.73;;;;;;;;;;5426444;27;20341;-83
2024/05/05 10:35:58;;;;;;;7.65;5.90;;;;;;;;;;5410592;27;20684;-85
2024/05/05 10:38:31;;;;;;;9.40;6.97;;;;;;;;;;5422109;27;20003;-86
2024/05/05 10:41:01;;;;;;;9.20;6.55;;;;;;;;;;5423389;27;20014;-84
2024/05/05 10:43:31;;;;;;;8.53;6.40;;;;;;;;;;5395341;27;20003;-84
2024/05/05 10:46:03;;;;;;;9.27;5.97;;;;;;;;;;5423987;27;19995;-85
2024/05/05 10:48:33;;;;;;;9.40;6.85;;;;;;;;;;5426092;27;20031;-85
2024/05/05 10:51:04;;;;;;;9.77;6.87;;;;;;;;;;5426354;27;20006;-83
2024/05/05 10:53:35;;;;;;;7.60;6.17;;;;;;;;;;5426265;27;20003;-84
2024/05/05 10:56:05;;;;;;;9.07;6.32;;;;;;;;;;5424081;27;20067;-83
2024/05/05 10:58:36;;;;;;;7.47;5.37;;;;;;;;;;5415969;27;20007;-84
2024/05/05 11:01:06;;;;;;;6.30;4.83;;;;;;;;;;5426250;27;19995;-84
2024/05/05 11:03:40;;;;;;;7.20;4.93;;;;;;;;;;5418993;27;19999;-82
2024/05/05 11:06:11;;;;;;;6.75;5.00;;;;;;;;;;5426495;27;20010;-84
2024/05/05 11:08:46;;;;;;;5.93;4.45;;;;;;;;;;5414268;27;20007;-84
2024/05/05 11:11:18;;;;;;;6.78;4.30;;;;;;;;;;5426790;27;20007;-85
2024/05/05 11:13:48;;;;;;;5.45;4.00;;;;;;;;;;5439064;27;20365;-86
2024/05/05 11:16:18;;;;;;;5.00;3.93;;;;;;;;;;5401280;27;20007;-85
2024/05/05 11:18:49;;;;;;;6.27;4.17;;;;;;;;;;5426383;27;20014;-83
2024/05/05 11:21:20;;;;;;;6.85;3.95;;;;;;;;;;5425564;27;20014;-83
2024/05/05 11:24:07;;;;;;;5.93;3.57;;;;;;;;;;5426103;27;20000;-83
2024/05/05 11:26:38;;;;;;;3.50;2.85;;;;;;;;;;5425688;27;20015;-82
2024/05/05 11:29:10;;;;;;;8.30;4.07;;;;;;;;;;5425501;27;20090;-83
2024/05/05 11:31:41;;;;;;;5.80;3.60;;;;;;;;;;5425453;27;19999;-83
2024/05/05 11:34:11;;;;;;;4.53;3.10;;;;;;;;;;5425800;27;20413;-85
2024/05/05 11:36:41;;;;;;;4.63;3.50;;;;;;;;;;5425568;27;20079;-84
2024/05/05 11:39:15;;;;;;;4.93;3.27;;;;;;;;;;5410593;27;20005;-83
2024/05/05 11:41:58;;;;;;;4.28;3.30;;;;;;;;;;5425900;27;20059;-87
2024/05/05 11:44:35;;;;;;;5.57;3.50;;;;;;;;;;5395768;27;20009;-84
2024/05/05 11:47:20;;;;;;;8.65;4.00;;;;;;;;;;5425526;27;20766;-83
2024/05/05 11:50:09;;;;;;;6.07;3.92;;;;;;;;;;5424229;27;20007;-84
2024/05/05 11:52:40;;;;;;;4.03;3.38;;;;;;;;;;5425580;27;20030;-85
2024/05/05 11:55:10;;;;;;;3.53;2.90;;;;;;;;;;5409262;27;20015;-84
2024/05/05 11:57:40;;;;;;;4.40;2.90;;;;;;;;;;5424231;27;20007;-85
2024/05/05 12:00:11;;;;;;;3.43;2.60;;;;;;;;;;5397660;27;20322;-84
2024/05/05 12:02:41;;;;;;;4.47;2.70;;;;;;;;;;5425154;27;19999;-84
2024/05/05 12:05:14;;;;;;;5.27;3.10;;;;;;;;;;5426610;27;20469;-83
2024/05/05 12:08:08;;;;;;;3.80;3.00;;;;;;;;;;5401771;27;19999;-84
2024/05/05 12:10:38;;;;;;;4.15;3.10;;;;;;;;;;5411558;27;20077;-85
2024/05/05 12:13:08;;;;;;;5.87;2.57;;;;;;;;;;5410387;27;20011;-84
2024/05/05 12:15:39;;;;;;;4.10;2.47;;;;;;;;;;5426270;27;20010;-83
2024/05/05 12:18:10;;;;;;;2.87;2.40;;;;;;;;;;5410711;27;20003;-84
2024/05/05 12:20:41;;;;;;;;;;;;;;;;;;5426700;27;20458;-84
2024/05/05 12:23:11;;;;;;;4.18;2.65;;;;;;;;;;5426852;27;20007;-85
2024/05/05 12:25:55;;;;;;;4.13;2.50;;;;;;;;;;5426113;27;20472;-83
2024/05/05 12:28:25;;;;;;;4.53;2.20;;;;;;;;;;5425840;27;20078;-84
2024/05/05 12:30:55;;;;;;;2.33;1.73;;;;;;;;;;5425644;27;20465;-85
2024/05/05 12:33:26;;;;;;;3.70;1.97;;;;;;;;;;5396218;27;19995;-84
2024/05/05 12:35:56;;;;;;;1.90;1.80;;;;;;;;;;5425690;27;19994;-85
2024/05/05 12:38:26;;;;;;;1.87;1.70;;;;;;;;;;5425294;27;20043;-83
2024/05/05 12:40:57;;;;;;;2.30;1.70;;;;;;;;;;5425314;27;20002;-84
2024/05/05 12:43:27;;;;;;;1.90;1.80;;;;;;;;;;5424993;27;19991;-85
2024/05/05 12:46:07;;;;;;;2.87;1.90;;;;;;;;;;5396090;27;19999;-86
2024/05/05 12:48:54;;;;;;;2.35;1.90;;;;;;;;;;5396444;27;19999;-84
2024/05/05 12:51:24;;;;;;;2.92;2.00;;;;;;;;;;5396550;27;20042;-84
2024/05/05 12:53:55;;;;;;;3.33;1.73;;;;;;;;;;5395765;27;19999;-84
2024/05/05 12:56:25;;;;;;;3.53;1.80;;;;;;;;;;5395820;27;20003;-83
2024/05/05 12:58:56;;;;;;;1.90;1.80;;;;;;;;;;5425113;27;20062;-85
2024/05/05 13:01:29;;;;;;;2.72;2.00;;;;;;;;;;5428006;27;20004;-85
2024/05/05 13:03:59;;;;;;;2.58;1.85;;;;;;;;;;5399421;27;20469;-84
2024/05/05 13:06:29;;;;;;;3.00;2.00;;;;;;;;;;5428853;27;19999;-84
2024/05/05 13:08:59;;;;;;;2.47;2.10;;;;;;;;;;5428992;27;19991;-83
2024/05/05 13:11:30;;;;;;;2.30;2.00;;;;;;;;;;5429141;27;19995;-84
2024/05/05 13:14:00;;;;;;;1.90;1.80;;;;;;;;;;5429448;27;20338;-86
2024/05/05 13:16:33;;;;;;;2.43;2.10;;;;;;;;;;5428917;27;20011;-84
2024/05/05 13:19:03;;;;;;;3.05;2.10;;;;;;;;;;5428789;27;19999;-84
2024/05/05 13:21:34;;;;;;;4.33;2.40;;;;;;;;;;5428497;27;19995;-85
2024/05/05 13:24:04;;;;;;;2.57;2.10;;;;;;;;;;5429133;27;20003;-84
2024/05/05 13:26:35;;;;;;;3.80;2.10;;;;;;;;;;5398842;27;19995;-85
2024/05/05 13:29:05;;;;;;;3.17;2.20;;;;;;;;;;5399786;27;20009;-85
2024/05/05 13:31:35;;;;;;;2.87;2.13;;;;;;;;;;5398837;27;19999;-85
2024/05/05 13:34:06;;;;;;;3.43;2.30;;;;;;;;;;5429430;27;20081;-85
2024/05/05 13:36:36;;;;;;;3.00;2.27;;;;;;;;;;5399468;27;20013;-84
2024/05/05 13:39:06;;;;;;;4.87;2.23;;;;;;;;;;5428361;27;20378;-83
2024/05/05 13:41:36;;;;;;;2.17;1.90;;;;;;;;;;5427685;27;20043;-83
2024/05/05 13:44:07;;;;;;;2.47;2.17;;;;;;;;;;5427454;27;20006;-84
2024/05/05 13:46:37;;;;;;;7.23;2.10;;;;;;;;;;5398992;27;19999;-84
2024/05/05 13:49:07;;;;;;;3.57;2.03;;;;;;;;;;5428469;27;20003;-84
2024/05/05 13:51:37;;;;;;;3.83;2.10;;;;;;;;;;5428442;27;20003;-82
2024/05/05 13:54:08;;;;;;;2.07;1.97;;;;;;;;;;5399213;27;20002;-82
2024/05/05 13:56:38;;;;;;;2.20;2.00;;;;;;;;;;5399348;27;20073;-84
2024/05/05 13:59:08;;;;;;;1.87;1.77;;;;;;;;;;5428629;27;20003;-84
2024/05/05 14:01:40;;;;;;;2.93;2.10;;;;;;;;;;5428560;27;20074;-84
2024/05/05 14:04:10;;;;;;;2.85;2.20;;;;;;;;;;5398033;27;20038;-86
2024/05/05 14:06:40;;;;;;;3.00;2.03;;;;;;;;;;5398552;27;19999;-85
2024/05/05 14:09:11;;;;;;;2.40;2.20;;;;;;;;;;5428274;27;20061;-84
2024/05/05 14:11:41;;;;;;;2.37;1.97;;;;;;;;;;5427574;27;20003;-84
2024/05/05 14:14:11;;;;;;;3.53;1.90;;;;;;;;;;5428312;27;19990;-84
2024/05/05 14:16:42;;;;;;;2.40;2.13;;;;;;;;;;5428208;27;20078;-84
2024/05/05 14:19:16;;;;;;;3.13;1.83;;;;;;;;;;5428336;27;20010;-84
2024/05/05 14:21:46;;;;;;;4.03;2.20;;;;;;;;;;5428153;27;19992;-84
2024/05/05 14:24:19;;;;;;;2.27;1.83;;;;;;;;;;5395997;27;20078;-84
2024/05/05 14:26:52;;;;;;;2.10;1.83;;;;;;;;;;5425568;27;20018;-85
2024/05/05 14:29:22;;;;;;;2.40;1.83;;;;;;;;;;5396047;27;20009;-85
2024/05/05 14:31:55;;;;;;;3.23;1.80;;;;;;;;;;5425570;27;20003;-84
2024/05/05 14:34:26;;;;;;;2.50;1.98;;;;;;;;;;5425180;27;19999;-84
2024/05/05 14:36:56;;;;;;;3.00;2.00;;;;;;;;;;5425435;27;20014;-84
2024/05/05 14:39:26;;;;;;;3.10;1.90;;;;;;;;;;5395903;27;19994;-84
2024/05/05 14:41:56;;;;;;;2.30;1.87;;;;;;;;;;5425278;27;20010;-84
2024/05/05 14:44:27;;;;;;;2.43;2.13;;;;;;;;;;5424966;27;20051;-84
2024/05/05 14:46:57;;;;;;;2.47;1.83;;;;;;;;;;5425209;27;20006;-84